sensor_id;sensor_type;location;lat;lon;timestamp;P1;durP1;ratioP1;P2;durP2;ratioP2
5710;SDS011;61291;52.524;13.422;2023-02-01T00:01:22;53.60;;;48.97;;
5710;SDS011;61291;52.524;13.422;2023-02-01T00:03:47;78.13;;;51.67;;
5710;SDS011;61291;52.524;13.422;2023-02-01T00:06:13;56.17;;;50.87;;
5710;SDS011;61291;52.524;13.422;2023-02-01T00:08:38;55.00;;;50.27;;
5710;SDS011;61291;52.524;13.422;2023-02-01T00:11:05;74.40;;;52.80;;
5710;SDS011;61291;52.524;13.422;2023-02-01T00:13:36;54.80;;;49.57;;
5710;SDS011;61291;52.524;13.422;2023-02-01T00:18:41;54.27;;;49.40;;
5710;SDS011;61291;52.524;13.422;2023-02-01T00:21:06;71.43;;;53.00;;
5710;SDS011;61291;52.524;13.422;2023-02-01T00:23:33;57.23;;;51.07;;
5710;SDS011;61291;52.524;13.422;2023-02-01T00:26:02;53.30;;;48.60;;
5710;SDS011;61291;52.524;13.422;2023-02-01T00:28:29;58.60;;;50.77;;
5710;SDS011;61291;52.524;13.422;2023-02-01T00:30:55;62.57;;;50.53;;
5710;SDS011;61291;52.524;13.422;2023-02-01T00:33:22;57.10;;;51.17;;
5710;SDS011;61291;52.524;13.422;2023-02-01T00:35:47;58.90;;;52.67;;
5710;SDS011;61291;52.524;13.422;2023-02-01T00:38:13;64.27;;;52.33;;
5710;SDS011;61291;52.524;13.422;2023-02-01T00:40:38;60.40;;;52.27;;
5710;SDS011;61291;52.524;13.422;2023-02-01T00:43:03;56.93;;;51.70;;
5710;SDS011;61291;52.524;13.422;2023-02-01T00:45:29;58.67;;;52.37;;
5710;SDS011;61291;52.524;13.422;2023-02-01T00:47:54;69.40;;;52.37;;
5710;SDS011;61291;52.524;13.422;2023-02-01T00:50:20;64.53;;;50.90;;
5710;SDS011;61291;52.524;13.422;2023-02-01T00:52:45;65.70;;;53.60;;
5710;SDS011;61291;52.524;13.422;2023-02-01T00:55:11;58.43;;;53.20;;
5710;SDS011;61291;52.524;13.422;2023-02-01T00:57:36;57.00;;;51.43;;
5710;SDS011;61291;52.524;13.422;2023-02-01T01:00:02;55.50;;;50.60;;
5710;SDS011;61291;52.524;13.422;2023-02-01T01:02:28;53.80;;;48.97;;
5710;SDS011;61291;52.524;13.422;2023-02-01T01:04:53;57.23;;;51.80;;
5710;SDS011;61291;52.524;13.422;2023-02-01T01:07:19;57.77;;;50.13;;
5710;SDS011;61291;52.524;13.422;2023-02-01T01:09:44;54.63;;;49.63;;
5710;SDS011;61291;52.524;13.422;2023-02-01T01:12:10;53.13;;;47.83;;
5710;SDS011;61291;52.524;13.422;2023-02-01T01:14:35;56.83;;;51.87;;
5710;SDS011;61291;52.524;13.422;2023-02-01T01:17:01;59.07;;;52.47;;
5710;SDS011;61291;52.524;13.422;2023-02-01T01:19:26;67.50;;;53.53;;
5710;SDS011;61291;52.524;13.422;2023-02-01T01:21:52;57.00;;;51.23;;
5710;SDS011;61291;52.524;13.422;2023-02-01T01:24:17;54.73;;;49.33;;
5710;SDS011;61291;52.524;13.422;2023-02-01T01:26:43;51.53;;;47.30;;
5710;SDS011;61291;52.524;13.422;2023-02-01T01:29:08;54.33;;;48.80;;
5710;SDS011;61291;52.524;13.422;2023-02-01T01:31:34;56.00;;;51.33;;
5710;SDS011;61291;52.524;13.422;2023-02-01T01:34:00;57.53;;;51.60;;
5710;SDS011;61291;52.524;13.422;2023-02-01T01:36:26;55.53;;;50.60;;
5710;SDS011;61291;52.524;13.422;2023-02-01T01:38:52;55.67;;;50.53;;
5710;SDS011;61291;52.524;13.422;2023-02-01T01:41:19;57.50;;;51.40;;
5710;SDS011;61291;52.524;13.422;2023-02-01T01:43:51;55.27;;;49.60;;
5710;SDS011;61291;52.524;13.422;2023-02-01T01:46:26;56.17;;;51.00;;
5710;SDS011;61291;52.524;13.422;2023-02-01T01:49:00;55.50;;;50.40;;
5710;SDS011;61291;52.524;13.422;2023-02-01T01:51:30;54.00;;;48.50;;
5710;SDS011;61291;52.524;13.422;2023-02-01T01:54:02;56.77;;;50.87;;
5710;SDS011;61291;52.524;13.422;2023-02-01T01:56:31;63.27;;;49.37;;
5710;SDS011;61291;52.524;13.422;2023-02-01T01:58:59;54.47;;;48.53;;
5710;SDS011;61291;52.524;13.422;2023-02-01T02:01:26;59.53;;;47.97;;
5710;SDS011;61291;52.524;13.422;2023-02-01T02:03:52;56.27;;;50.87;;
5710;SDS011;61291;52.524;13.422;2023-02-01T02:06:26;55.60;;;50.03;;
5710;SDS011;61291;52.524;13.422;2023-02-01T02:09:05;58.60;;;52.30;;
5710;SDS011;61291;52.524;13.422;2023-02-01T02:11:31;56.83;;;50.97;;
5710;SDS011;61291;52.524;13.422;2023-02-01T02:13:57;54.60;;;50.57;;
5710;SDS011;61291;52.524;13.422;2023-02-01T02:16:27;56.70;;;50.73;;
5710;SDS011;61291;52.524;13.422;2023-02-01T02:19:15;57.40;;;51.30;;
5710;SDS011;61291;52.524;13.422;2023-02-01T02:22:05;59.50;;;52.03;;
5710;SDS011;61291;52.524;13.422;2023-02-01T02:24:56;55.72;;;41.42;;
5710;SDS011;61291;52.524;13.422;2023-02-01T02:30:17;60.93;;;54.00;;
5710;SDS011;61291;52.524;13.422;2023-02-01T02:33:23;57.93;;;52.40;;
5710;SDS011;61291;52.524;13.422;2023-02-01T02:41:45;57.50;;;51.67;;
5710;SDS011;61291;52.524;13.422;2023-02-01T02:44:54;57.43;;;52.33;;
5710;SDS011;61291;52.524;13.422;2023-02-01T02:47:56;59.07;;;52.73;;
5710;SDS011;61291;52.524;13.422;2023-02-01T02:50:41;60.37;;;53.17;;
5710;SDS011;61291;52.524;13.422;2023-02-01T02:53:50;56.97;;;51.27;;
5710;SDS011;61291;52.524;13.422;2023-02-01T02:56:40;60.33;;;53.87;;
5710;SDS011;61291;52.524;13.422;2023-02-01T02:59:25;74.90;;;51.90;;
5710;SDS011;61291;52.524;13.422;2023-02-01T03:02:11;58.13;;;52.53;;
5710;SDS011;61291;52.524;13.422;2023-02-01T03:04:57;55.83;;;50.60;;
5710;SDS011;61291;52.524;13.422;2023-02-01T03:10:44;57.43;;;51.83;;
5710;SDS011;61291;52.524;13.422;2023-02-01T03:13:20;56.97;;;50.90;;
5710;SDS011;61291;52.524;13.422;2023-02-01T03:16:18;54.80;;;43.45;;
5710;SDS011;61291;52.524;13.422;2023-02-01T03:19:25;60.07;;;54.27;;
5710;SDS011;61291;52.524;13.422;2023-02-01T03:21:57;67.40;;;53.67;;
5710;SDS011;61291;52.524;13.422;2023-02-01T03:24:29;59.73;;;53.77;;
5710;SDS011;61291;52.524;13.422;2023-02-01T03:27:07;66.73;;;54.63;;
5710;SDS011;61291;52.524;13.422;2023-02-01T03:29:47;60.10;;;54.33;;
5710;SDS011;61291;52.524;13.422;2023-02-01T03:32:21;61.17;;;54.87;;
5710;SDS011;61291;52.524;13.422;2023-02-01T03:34:47;71.10;;;55.90;;
5710;SDS011;61291;52.524;13.422;2023-02-01T03:37:15;60.87;;;55.57;;
5710;SDS011;61291;52.524;13.422;2023-02-01T03:39:48;59.77;;;53.60;;
5710;SDS011;61291;52.524;13.422;2023-02-01T03:45:04;59.90;;;54.50;;
5710;SDS011;61291;52.524;13.422;2023-02-01T03:47:47;51.38;;;46.10;;
5710;SDS011;61291;52.524;13.422;2023-02-01T03:50:21;62.23;;;56.77;;
5710;SDS011;61291;52.524;13.422;2023-02-01T03:52:54;61.83;;;56.10;;
5710;SDS011;61291;52.524;13.422;2023-02-01T03:55:28;59.80;;;54.70;;
5710;SDS011;61291;52.524;13.422;2023-02-01T03:58:01;67.87;;;57.57;;
5710;SDS011;61291;52.524;13.422;2023-02-01T04:00:34;61.33;;;54.70;;
5710;SDS011;61291;52.524;13.422;2023-02-01T04:03:00;60.87;;;55.03;;
5710;SDS011;61291;52.524;13.422;2023-02-01T04:05:26;61.60;;;56.43;;
5710;SDS011;61291;52.524;13.422;2023-02-01T04:07:51;61.10;;;54.60;;
5710;SDS011;61291;52.524;13.422;2023-02-01T04:10:17;63.90;;;57.40;;
5710;SDS011;61291;52.524;13.422;2023-02-01T04:12:42;60.40;;;55.40;;
5710;SDS011;61291;52.524;13.422;2023-02-01T04:15:08;64.33;;;55.10;;
5710;SDS011;61291;52.524;13.422;2023-02-01T04:17:33;61.63;;;55.73;;
5710;SDS011;61291;52.524;13.422;2023-02-01T04:19:59;59.87;;;53.77;;
5710;SDS011;61291;52.524;13.422;2023-02-01T04:22:24;58.27;;;53.30;;
5710;SDS011;61291;52.524;13.422;2023-02-01T04:24:50;62.37;;;56.00;;
5710;SDS011;61291;52.524;13.422;2023-02-01T04:27:15;60.57;;;54.80;;
5710;SDS011;61291;52.524;13.422;2023-02-01T04:29:41;52.93;;;47.20;;
5710;SDS011;61291;52.524;13.422;2023-02-01T04:32:07;64.27;;;58.10;;
5710;SDS011;61291;52.524;13.422;2023-02-01T04:34:33;62.50;;;56.40;;
5710;SDS011;61291;52.524;13.422;2023-02-01T04:36:59;62.10;;;55.80;;
5710;SDS011;61291;52.524;13.422;2023-02-01T04:39:24;61.50;;;55.40;;
5710;SDS011;61291;52.524;13.422;2023-02-01T04:41:50;60.50;;;54.87;;
5710;SDS011;61291;52.524;13.422;2023-02-01T04:44:16;66.50;;;60.07;;
5710;SDS011;61291;52.524;13.422;2023-02-01T04:46:43;65.33;;;58.93;;
5710;SDS011;61291;52.524;13.422;2023-02-01T04:49:09;63.60;;;58.00;;
5710;SDS011;61291;52.524;13.422;2023-02-01T04:51:35;63.77;;;57.93;;
5710;SDS011;61291;52.524;13.422;2023-02-01T04:54:01;64.73;;;58.77;;
5710;SDS011;61291;52.524;13.422;2023-02-01T04:56:26;66.03;;;59.27;;
5710;SDS011;61291;52.524;13.422;2023-02-01T04:58:52;65.83;;;59.63;;
5710;SDS011;61291;52.524;13.422;2023-02-01T05:01:18;64.57;;;59.13;;
5710;SDS011;61291;52.524;13.422;2023-02-01T05:03:43;61.80;;;56.67;;
5710;SDS011;61291;52.524;13.422;2023-02-01T05:06:09;62.47;;;56.80;;
5710;SDS011;61291;52.524;13.422;2023-02-01T05:08:35;62.97;;;57.37;;
5710;SDS011;61291;52.524;13.422;2023-02-01T05:11:00;69.70;;;62.43;;
5710;SDS011;61291;52.524;13.422;2023-02-01T05:13:29;56.83;;;48.50;;
5710;SDS011;61291;52.524;13.422;2023-02-01T05:16:13;65.93;;;60.00;;
5710;SDS011;61291;52.524;13.422;2023-02-01T05:18:39;65.60;;;58.90;;
5710;SDS011;61291;52.524;13.422;2023-02-01T05:21:05;69.30;;;62.87;;
5710;SDS011;61291;52.524;13.422;2023-02-01T05:23:30;66.90;;;60.57;;
5710;SDS011;61291;52.524;13.422;2023-02-01T05:25:59;68.83;;;62.87;;
5710;SDS011;61291;52.524;13.422;2023-02-01T05:28:26;69.77;;;62.83;;
5710;SDS011;61291;52.524;13.422;2023-02-01T05:30:52;66.50;;;60.10;;
5710;SDS011;61291;52.524;13.422;2023-02-01T05:33:18;64.13;;;58.30;;
5710;SDS011;61291;52.524;13.422;2023-02-01T05:35:44;61.00;;;55.60;;
5710;SDS011;61291;52.524;13.422;2023-02-01T05:38:09;65.43;;;59.53;;
5710;SDS011;61291;52.524;13.422;2023-02-01T05:40:35;68.23;;;61.33;;
5710;SDS011;61291;52.524;13.422;2023-02-01T05:43:00;65.97;;;60.40;;
5710;SDS011;61291;52.524;13.422;2023-02-01T05:45:26;66.23;;;56.43;;
5710;SDS011;61291;52.524;13.422;2023-02-01T05:47:51;64.73;;;56.17;;
5710;SDS011;61291;52.524;13.422;2023-02-01T05:50:17;56.00;;;50.90;;
5710;SDS011;61291;52.524;13.422;2023-02-01T05:52:42;59.60;;;53.73;;
5710;SDS011;61291;52.524;13.422;2023-02-01T05:55:08;55.67;;;46.65;;
5710;SDS011;61291;52.524;13.422;2023-02-01T05:57:33;69.53;;;55.70;;
5710;SDS011;61291;52.524;13.422;2023-02-01T05:59:59;63.70;;;58.00;;
5710;SDS011;61291;52.524;13.422;2023-02-01T06:02:24;62.67;;;56.73;;
5710;SDS011;61291;52.524;13.422;2023-02-01T06:04:50;64.33;;;58.10;;
5710;SDS011;61291;52.524;13.422;2023-02-01T06:07:16;64.03;;;57.90;;
5710;SDS011;61291;52.524;13.422;2023-02-01T06:09:42;64.73;;;58.23;;
5710;SDS011;61291;52.524;13.422;2023-02-01T06:12:07;65.77;;;59.13;;
5710;SDS011;61291;52.524;13.422;2023-02-01T06:14:33;62.73;;;57.20;;
5710;SDS011;61291;52.524;13.422;2023-02-01T06:16:58;64.47;;;58.27;;
5710;SDS011;61291;52.524;13.422;2023-02-01T06:19:24;63.93;;;57.23;;
5710;SDS011;61291;52.524;13.422;2023-02-01T06:21:49;64.80;;;58.37;;
5710;SDS011;61291;52.524;13.422;2023-02-01T06:24:15;61.33;;;55.23;;
5710;SDS011;61291;52.524;13.422;2023-02-01T06:26:40;62.17;;;54.50;;
5710;SDS011;61291;52.524;13.422;2023-02-01T06:29:06;66.83;;;57.10;;
5710;SDS011;61291;52.524;13.422;2023-02-01T06:31:32;70.13;;;59.37;;
5710;SDS011;61291;52.524;13.422;2023-02-01T06:33:58;60.77;;;55.23;;
5710;SDS011;61291;52.524;13.422;2023-02-01T06:36:24;64.57;;;58.73;;
5710;SDS011;61291;52.524;13.422;2023-02-01T06:38:49;64.73;;;58.80;;
5710;SDS011;61291;52.524;13.422;2023-02-01T06:41:15;66.80;;;59.10;;
5710;SDS011;61291;52.524;13.422;2023-02-01T06:43:41;63.10;;;56.33;;
5710;SDS011;61291;52.524;13.422;2023-02-01T06:46:09;63.80;;;57.77;;
5710;SDS011;61291;52.524;13.422;2023-02-01T06:48:37;67.33;;;59.50;;
5710;SDS011;61291;52.524;13.422;2023-02-01T06:51:02;74.47;;;64.10;;
5710;SDS011;61291;52.524;13.422;2023-02-01T06:53:28;64.60;;;58.20;;
5710;SDS011;61291;52.524;13.422;2023-02-01T06:55:58;70.23;;;60.80;;
5710;SDS011;61291;52.524;13.422;2023-02-01T06:58:27;68.07;;;61.57;;
5710;SDS011;61291;52.524;13.422;2023-02-01T07:00:53;61.30;;;56.00;;
5710;SDS011;61291;52.524;13.422;2023-02-01T07:03:19;62.67;;;57.40;;
5710;SDS011;61291;52.524;13.422;2023-02-01T07:05:44;68.57;;;61.67;;
5710;SDS011;61291;52.524;13.422;2023-02-01T07:08:10;66.30;;;60.40;;
5710;SDS011;61291;52.524;13.422;2023-02-01T07:10:35;66.53;;;60.10;;
5710;SDS011;61291;52.524;13.422;2023-02-01T07:13:01;65.73;;;58.70;;
5710;SDS011;61291;52.524;13.422;2023-02-01T07:15:27;68.50;;;62.10;;
5710;SDS011;61291;52.524;13.422;2023-02-01T07:17:55;66.60;;;60.37;;
5710;SDS011;61291;52.524;13.422;2023-02-01T07:20:21;59.83;;;50.77;;
5710;SDS011;61291;52.524;13.422;2023-02-01T07:22:47;68.40;;;62.37;;
5710;SDS011;61291;52.524;13.422;2023-02-01T07:25:13;66.77;;;60.43;;
5710;SDS011;61291;52.524;13.422;2023-02-01T07:27:38;64.13;;;58.33;;
5710;SDS011;61291;52.524;13.422;2023-02-01T07:30:04;56.03;;;47.90;;
5710;SDS011;61291;52.524;13.422;2023-02-01T07:32:31;63.27;;;57.40;;
5710;SDS011;61291;52.524;13.422;2023-02-01T07:34:57;68.47;;;61.40;;
5710;SDS011;61291;52.524;13.422;2023-02-01T07:37:24;62.87;;;56.50;;
5710;SDS011;61291;52.524;13.422;2023-02-01T07:39:50;70.70;;;63.37;;
5710;SDS011;61291;52.524;13.422;2023-02-01T07:42:16;66.57;;;60.60;;
5710;SDS011;61291;52.524;13.422;2023-02-01T07:44:42;77.50;;;70.10;;
5710;SDS011;61291;52.524;13.422;2023-02-01T07:47:08;64.90;;;59.30;;
5710;SDS011;61291;52.524;13.422;2023-02-01T07:49:33;72.90;;;64.77;;
5710;SDS011;61291;52.524;13.422;2023-02-01T07:51:59;67.73;;;61.93;;
5710;SDS011;61291;52.524;13.422;2023-02-01T07:54:24;73.13;;;63.63;;
5710;SDS011;61291;52.524;13.422;2023-02-01T07:56:50;71.90;;;64.70;;
5710;SDS011;61291;52.524;13.422;2023-02-01T07:59:15;67.33;;;61.67;;
5710;SDS011;61291;52.524;13.422;2023-02-01T08:01:41;66.38;;;59.95;;
5710;SDS011;61291;52.524;13.422;2023-02-01T08:04:07;68.10;;;61.60;;
5710;SDS011;61291;52.524;13.422;2023-02-01T08:06:35;70.57;;;63.40;;
5710;SDS011;61291;52.524;13.422;2023-02-01T08:09:02;68.40;;;62.40;;
5710;SDS011;61291;52.524;13.422;2023-02-01T08:11:29;63.65;;;57.63;;
5710;SDS011;61291;52.524;13.422;2023-02-01T08:13:55;66.90;;;60.10;;
5710;SDS011;61291;52.524;13.422;2023-02-01T08:16:22;68.33;;;61.93;;
5710;SDS011;61291;52.524;13.422;2023-02-01T08:18:48;67.60;;;61.80;;
5710;SDS011;61291;52.524;13.422;2023-02-01T08:21:14;67.10;;;61.30;;
5710;SDS011;61291;52.524;13.422;2023-02-01T08:23:42;68.37;;;62.10;;
5710;SDS011;61291;52.524;13.422;2023-02-01T08:26:09;72.10;;;65.47;;
5710;SDS011;61291;52.524;13.422;2023-02-01T08:28:37;64.63;;;59.00;;
5710;SDS011;61291;52.524;13.422;2023-02-01T08:31:14;68.50;;;61.97;;
5710;SDS011;61291;52.524;13.422;2023-02-01T08:33:41;70.13;;;63.53;;
5710;SDS011;61291;52.524;13.422;2023-02-01T08:36:09;69.03;;;63.43;;
5710;SDS011;61291;52.524;13.422;2023-02-01T08:38:36;70.17;;;63.70;;
5710;SDS011;61291;52.524;13.422;2023-02-01T08:41:04;67.70;;;61.83;;
5710;SDS011;61291;52.524;13.422;2023-02-01T08:43:35;70.83;;;63.93;;
5710;SDS011;61291;52.524;13.422;2023-02-01T08:46:00;69.67;;;63.17;;
5710;SDS011;61291;52.524;13.422;2023-02-01T08:48:26;72.90;;;65.00;;
5710;SDS011;61291;52.524;13.422;2023-02-01T08:50:52;65.13;;;59.17;;
5710;SDS011;61291;52.524;13.422;2023-02-01T08:53:17;64.57;;;58.70;;
5710;SDS011;61291;52.524;13.422;2023-02-01T08:55:44;55.57;;;50.07;;
5710;SDS011;61291;52.524;13.422;2023-02-01T08:58:10;70.47;;;63.60;;
5710;SDS011;61291;52.524;13.422;2023-02-01T09:00:36;60.10;;;55.97;;
5710;SDS011;61291;52.524;13.422;2023-02-01T09:03:01;71.03;;;64.63;;
5710;SDS011;61291;52.524;13.422;2023-02-01T09:05:27;64.67;;;59.37;;
5710;SDS011;61291;52.524;13.422;2023-02-01T09:07:53;69.53;;;63.17;;
5710;SDS011;61291;52.524;13.422;2023-02-01T09:10:18;72.40;;;65.93;;
5710;SDS011;61291;52.524;13.422;2023-02-01T09:12:44;72.07;;;66.07;;
5710;SDS011;61291;52.524;13.422;2023-02-01T09:15:09;61.27;;;56.53;;
5710;SDS011;61291;52.524;13.422;2023-02-01T09:17:35;66.90;;;60.80;;
5710;SDS011;61291;52.524;13.422;2023-02-01T09:20:01;62.70;;;57.60;;
5710;SDS011;61291;52.524;13.422;2023-02-01T09:22:26;63.30;;;58.17;;
5710;SDS011;61291;52.524;13.422;2023-02-01T09:24:52;63.50;;;58.57;;
5710;SDS011;61291;52.524;13.422;2023-02-01T09:27:18;64.83;;;59.30;;
5710;SDS011;61291;52.524;13.422;2023-02-01T09:29:43;68.73;;;63.40;;
5710;SDS011;61291;52.524;13.422;2023-02-01T09:32:09;66.83;;;61.83;;
5710;SDS011;61291;52.524;13.422;2023-02-01T09:34:35;66.83;;;61.77;;
5710;SDS011;61291;52.524;13.422;2023-02-01T09:37:01;68.77;;;63.20;;
5710;SDS011;61291;52.524;13.422;2023-02-01T09:39:27;66.90;;;61.30;;
5710;SDS011;61291;52.524;13.422;2023-02-01T09:42:07;65.20;;;59.50;;
5710;SDS011;61291;52.524;13.422;2023-02-01T09:47:36;65.77;;;60.37;;
5710;SDS011;61291;52.524;13.422;2023-02-01T09:50:13;63.37;;;58.57;;
5710;SDS011;61291;52.524;13.422;2023-02-01T09:52:44;68.03;;;62.80;;
5710;SDS011;61291;52.524;13.422;2023-02-01T09:55:32;62.93;;;57.47;;
5710;SDS011;61291;52.524;13.422;2023-02-01T09:58:09;66.27;;;59.77;;
5710;SDS011;61291;52.524;13.422;2023-02-01T10:00:37;63.07;;;58.37;;
5710;SDS011;61291;52.524;13.422;2023-02-01T10:03:04;63.97;;;57.43;;
5710;SDS011;61291;52.524;13.422;2023-02-01T10:08:18;59.90;;;55.17;;
5710;SDS011;61291;52.524;13.422;2023-02-01T10:10:48;62.13;;;57.33;;
5710;SDS011;61291;52.524;13.422;2023-02-01T10:13:23;61.27;;;56.63;;
5710;SDS011;61291;52.524;13.422;2023-02-01T10:16:02;61.07;;;55.63;;
5710;SDS011;61291;52.524;13.422;2023-02-01T10:18:42;59.27;;;55.17;;
5710;SDS011;61291;52.524;13.422;2023-02-01T10:21:27;63.63;;;58.60;;
5710;SDS011;61291;52.524;13.422;2023-02-01T10:24:22;61.23;;;56.50;;
5710;SDS011;61291;52.524;13.422;2023-02-01T10:29:36;56.00;;;52.20;;
5710;SDS011;61291;52.524;13.422;2023-02-01T10:32:09;61.13;;;56.10;;
5710;SDS011;61291;52.524;13.422;2023-02-01T10:34:38;59.13;;;53.90;;
5710;SDS011;61291;52.524;13.422;2023-02-01T10:37:16;59.33;;;54.03;;
5710;SDS011;61291;52.524;13.422;2023-02-01T10:42:38;61.13;;;55.90;;
5710;SDS011;61291;52.524;13.422;2023-02-01T10:45:04;62.63;;;53.00;;
5710;SDS011;61291;52.524;13.422;2023-02-01T10:47:31;58.53;;;53.53;;
5710;SDS011;61291;52.524;13.422;2023-02-01T10:50:13;62.03;;;56.87;;
5710;SDS011;61291;52.524;13.422;2023-02-01T10:55:49;59.37;;;54.10;;
5710;SDS011;61291;52.524;13.422;2023-02-01T10:58:17;60.10;;;55.17;;
5710;SDS011;61291;52.524;13.422;2023-02-01T11:00:46;58.23;;;54.07;;
5710;SDS011;61291;52.524;13.422;2023-02-01T11:03:30;62.27;;;57.43;;
5710;SDS011;61291;52.524;13.422;2023-02-01T11:06:01;60.20;;;54.43;;
5710;SDS011;61291;52.524;13.422;2023-02-01T11:08:41;59.10;;;54.20;;
5710;SDS011;61291;52.524;13.422;2023-02-01T11:11:11;63.43;;;58.43;;
5710;SDS011;61291;52.524;13.422;2023-02-01T11:13:37;62.57;;;56.57;;
5710;SDS011;61291;52.524;13.422;2023-02-01T11:16:03;61.53;;;56.83;;
5710;SDS011;61291;52.524;13.422;2023-02-01T11:18:31;61.00;;;56.60;;
5710;SDS011;61291;52.524;13.422;2023-02-01T11:21:01;61.30;;;56.90;;
5710;SDS011;61291;52.524;13.422;2023-02-01T11:23:27;63.33;;;58.30;;
5710;SDS011;61291;52.524;13.422;2023-02-01T11:28:23;63.23;;;57.43;;
5710;SDS011;61291;52.524;13.422;2023-02-01T11:30:51;67.50;;;61.63;;
5710;SDS011;61291;52.524;13.422;2023-02-01T11:33:20;63.37;;;58.00;;
5710;SDS011;61291;52.524;13.422;2023-02-01T11:35:50;63.20;;;58.10;;
5710;SDS011;61291;52.524;13.422;2023-02-01T11:38:21;63.73;;;58.90;;
5710;SDS011;61291;52.524;13.422;2023-02-01T11:40:52;60.70;;;55.53;;
5710;SDS011;61291;52.524;13.422;2023-02-01T11:43:22;63.33;;;57.63;;
5710;SDS011;61291;52.524;13.422;2023-02-01T11:48:24;62.53;;;57.13;;
5710;SDS011;61291;52.524;13.422;2023-02-01T11:51:08;60.47;;;55.33;;
5710;SDS011;61291;52.524;13.422;2023-02-01T11:59:17;59.60;;;54.60;;
5710;SDS011;61291;52.524;13.422;2023-02-01T12:02:18;61.53;;;55.90;;
5710;SDS011;61291;52.524;13.422;2023-02-01T12:05:06;60.33;;;54.63;;
5710;SDS011;61291;52.524;13.422;2023-02-01T12:13:29;62.90;;;57.30;;
5710;SDS011;61291;52.524;13.422;2023-02-01T12:16:11;65.67;;;59.97;;
5710;SDS011;61291;52.524;13.422;2023-02-01T12:19:03;52.53;;;47.65;;
5710;SDS011;61291;52.524;13.422;2023-02-01T12:21:38;66.40;;;61.20;;
5710;SDS011;61291;52.524;13.422;2023-02-01T12:32:38;72.77;;;66.40;;
5710;SDS011;61291;52.524;13.422;2023-02-01T12:38:05;65.73;;;59.93;;
5710;SDS011;61291;52.524;13.422;2023-02-01T12:43:38;62.67;;;57.50;;
5710;SDS011;61291;52.524;13.422;2023-02-01T12:46:12;60.27;;;55.30;;
5710;SDS011;61291;52.524;13.422;2023-02-01T12:48:55;63.37;;;58.23;;
5710;SDS011;61291;52.524;13.422;2023-02-01T12:51:27;66.13;;;60.33;;
5710;SDS011;61291;52.524;13.422;2023-02-01T12:54:02;65.37;;;58.67;;
5710;SDS011;61291;52.524;13.422;2023-02-01T12:56:46;66.40;;;61.00;;
5710;SDS011;61291;52.524;13.422;2023-02-01T12:59:17;67.23;;;61.77;;
5710;SDS011;61291;52.524;13.422;2023-02-01T13:01:49;73.23;;;67.10;;
5710;SDS011;61291;52.524;13.422;2023-02-01T13:04:27;74.67;;;67.97;;
5710;SDS011;61291;52.524;13.422;2023-02-01T13:07:07;69.50;;;64.13;;
5710;SDS011;61291;52.524;13.422;2023-02-01T13:10:11;72.37;;;65.43;;
5710;SDS011;61291;52.524;13.422;2023-02-01T13:12:47;54.47;;;49.58;;
5710;SDS011;61291;52.524;13.422;2023-02-01T13:15:32;66.50;;;61.70;;
5710;SDS011;61291;52.524;13.422;2023-02-01T13:18:04;67.67;;;61.97;;
5710;SDS011;61291;52.524;13.422;2023-02-01T13:20:36;67.63;;;61.83;;
5710;SDS011;61291;52.524;13.422;2023-02-01T13:23:22;69.23;;;63.30;;
5710;SDS011;61291;52.524;13.422;2023-02-01T13:25:49;65.87;;;60.37;;
5710;SDS011;61291;52.524;13.422;2023-02-01T13:28:18;69.67;;;63.53;;
5710;SDS011;61291;52.524;13.422;2023-02-01T13:45:23;73.17;;;67.60;;
5710;SDS011;61291;52.524;13.422;2023-02-01T13:47:51;85.70;;;79.17;;
5710;SDS011;61291;52.524;13.422;2023-02-01T13:50:24;76.27;;;70.77;;
5710;SDS011;61291;52.524;13.422;2023-02-01T13:53:03;77.50;;;71.50;;
5710;SDS011;61291;52.524;13.422;2023-02-01T13:55:36;64.38;;;58.47;;
5710;SDS011;61291;52.524;13.422;2023-02-01T13:58:18;74.37;;;68.07;;
5710;SDS011;61291;52.524;13.422;2023-02-01T14:01:31;73.37;;;66.60;;
5710;SDS011;61291;52.524;13.422;2023-02-01T14:04:03;77.27;;;70.50;;
5710;SDS011;61291;52.524;13.422;2023-02-01T14:11:55;66.03;;;61.13;;
5710;SDS011;61291;52.524;13.422;2023-02-01T14:19:22;69.70;;;64.17;;
5710;SDS011;61291;52.524;13.422;2023-02-01T14:21:53;71.97;;;66.43;;
5710;SDS011;61291;52.524;13.422;2023-02-01T14:26:55;73.80;;;67.10;;
5710;SDS011;61291;52.524;13.422;2023-02-01T14:29:26;66.93;;;61.50;;
5710;SDS011;61291;52.524;13.422;2023-02-01T14:32:11;66.40;;;61.50;;
5710;SDS011;61291;52.524;13.422;2023-02-01T14:37:13;70.13;;;64.17;;
5710;SDS011;61291;52.524;13.422;2023-02-01T14:40:03;72.60;;;66.20;;
5710;SDS011;61291;52.524;13.422;2023-02-01T14:42:37;73.37;;;66.37;;
5710;SDS011;61291;52.524;13.422;2023-02-01T14:47:45;67.63;;;61.90;;
5710;SDS011;61291;52.524;13.422;2023-02-01T14:55:37;69.03;;;63.73;;
5710;SDS011;61291;52.524;13.422;2023-02-01T14:58:18;71.97;;;65.60;;
5710;SDS011;61291;52.524;13.422;2023-02-01T15:00:54;69.37;;;63.83;;
5710;SDS011;61291;52.524;13.422;2023-02-01T15:06:30;73.43;;;67.13;;
5710;SDS011;61291;52.524;13.422;2023-02-01T15:09:03;72.13;;;66.63;;
5710;SDS011;61291;52.524;13.422;2023-02-01T15:12:00;70.13;;;64.33;;
5710;SDS011;61291;52.524;13.422;2023-02-01T15:14:30;68.33;;;63.33;;
5710;SDS011;61291;52.524;13.422;2023-02-01T15:16:57;65.27;;;59.87;;
5710;SDS011;61291;52.524;13.422;2023-02-01T15:19:27;65.53;;;60.77;;
5710;SDS011;61291;52.524;13.422;2023-02-01T15:21:56;64.17;;;59.37;;
5710;SDS011;61291;52.524;13.422;2023-02-01T15:24:23;62.17;;;56.93;;
5710;SDS011;61291;52.524;13.422;2023-02-01T15:26:51;62.77;;;57.80;;
5710;SDS011;61291;52.524;13.422;2023-02-01T15:29:18;57.93;;;53.90;;
5710;SDS011;61291;52.524;13.422;2023-02-01T15:31:46;62.63;;;58.27;;
5710;SDS011;61291;52.524;13.422;2023-02-01T15:34:16;60.57;;;55.97;;
5710;SDS011;61291;52.524;13.422;2023-02-01T15:36:42;59.70;;;55.53;;
5710;SDS011;61291;52.524;13.422;2023-02-01T15:39:24;60.43;;;56.30;;
5710;SDS011;61291;52.524;13.422;2023-02-01T15:42:00;58.47;;;54.37;;
5710;SDS011;61291;52.524;13.422;2023-02-01T15:44:43;57.90;;;53.90;;
5710;SDS011;61291;52.524;13.422;2023-02-01T15:47:17;56.40;;;52.70;;
5710;SDS011;61291;52.524;13.422;2023-02-01T15:49:46;58.87;;;54.07;;
5710;SDS011;61291;52.524;13.422;2023-02-01T15:52:21;61.40;;;57.30;;
5710;SDS011;61291;52.524;13.422;2023-02-01T15:54:54;59.97;;;55.93;;
5710;SDS011;61291;52.524;13.422;2023-02-01T15:57:25;46.35;;;43.15;;
5710;SDS011;61291;52.524;13.422;2023-02-01T15:59:57;57.80;;;54.00;;
5710;SDS011;61291;52.524;13.422;2023-02-01T16:02:25;56.97;;;53.33;;
5710;SDS011;61291;52.524;13.422;2023-02-01T16:04:52;57.87;;;54.10;;
5710;SDS011;61291;52.524;13.422;2023-02-01T16:07:25;56.10;;;52.57;;
5710;SDS011;61291;52.524;13.422;2023-02-01T16:09:56;56.00;;;52.30;;
5710;SDS011;61291;52.524;13.422;2023-02-01T16:12:31;56.27;;;51.80;;
5710;SDS011;61291;52.524;13.422;2023-02-01T16:15:03;54.73;;;51.13;;
5710;SDS011;61291;52.524;13.422;2023-02-01T16:17:29;55.37;;;51.87;;
5710;SDS011;61291;52.524;13.422;2023-02-01T16:19:54;52.20;;;49.00;;
5710;SDS011;61291;52.524;13.422;2023-02-01T16:22:22;55.40;;;51.90;;
5710;SDS011;61291;52.524;13.422;2023-02-01T16:24:47;58.47;;;54.60;;